createdAt,value
2023-05-09T00:01:40.274Z,10.20
2023-05-09T00:05:42.069Z,8.80
2023-05-09T00:09:44.184Z,8.55
2023-05-09T00:13:46.082Z,9.20
2023-05-09T00:17:48.158Z,8.83
2023-05-09T00:21:49.917Z,9.52
2023-05-09T00:25:51.904Z,9.88
2023-05-09T00:29:54.381Z,8.93
2023-05-09T00:33:56.086Z,8.97
2023-05-09T00:37:57.835Z,8.73
2023-05-09T00:41:59.614Z,8.57
2023-05-09T00:46:01.566Z,10.43
2023-05-09T00:50:03.789Z,8.63
2023-05-09T00:54:07.687Z,8.68
2023-05-09T00:58:11.461Z,9.95
2023-05-09T01:02:13.387Z,9.05
2023-05-09T01:06:39.853Z,9.60
2023-05-09T01:10:54.996Z,9.48
2023-05-09T01:15:45.177Z,9.25
2023-05-09T01:20:14.635Z,10.20
2023-05-09T01:24:31.287Z,9.38
2023-05-09T01:28:56.542Z,9.90
2023-05-09T01:33:05.704Z,9.43
2023-05-09T01:37:09.401Z,9.52
2023-05-09T01:41:13.426Z,9.82
2023-05-09T01:45:16.180Z,10.15
2023-05-09T01:49:20.512Z,10.18
2023-05-09T01:53:24.663Z,11.07
2023-05-09T01:57:28.286Z,14.60
2023-05-09T02:01:30.558Z,10.27
2023-05-09T02:05:33.367Z,10.25
2023-05-09T02:13:38.492Z,11.23
2023-05-09T02:17:40.175Z,12.15
2023-05-09T02:21:41.973Z,11.52
2023-05-09T02:25:46.579Z,12.60
2023-05-09T02:29:51.925Z,11.70
2023-05-09T02:33:55.016Z,12.90
2023-05-09T02:37:59.381Z,12.73
2023-05-09T02:42:07.186Z,13.30
2023-05-09T02:46:10.725Z,12.35
2023-05-09T02:50:12.592Z,12.70
2023-05-09T02:54:14.306Z,13.45
2023-05-09T02:58:16.237Z,13.95
2023-05-09T03:02:19.498Z,15.88
2023-05-09T03:06:21.832Z,14.02
2023-05-09T03:10:23.496Z,14.40
2023-05-09T03:14:25.403Z,14.13
2023-05-09T03:18:27.122Z,14.07
2023-05-09T03:22:29.568Z,15.05
2023-05-09T03:26:36.346Z,15.25
2023-05-09T03:30:38.121Z,15.27
2023-05-09T03:34:43.588Z,16.20
2023-05-09T03:38:45.841Z,15.53
2023-05-09T03:42:48.413Z,15.98
2023-05-09T03:46:50.508Z,15.82
2023-05-09T03:50:52.535Z,16.08
2023-05-09T03:54:55.437Z,15.77
2023-05-09T03:58:57.725Z,16.80
2023-05-09T04:03:01.176Z,16.02
2023-05-09T04:07:09.231Z,15.13
2023-05-09T04:11:11.560Z,16.88
2023-05-09T04:15:16.947Z,16.30
2023-05-09T04:19:19.197Z,14.45
2023-05-09T04:23:21.082Z,16.25
2023-05-09T04:27:23.904Z,17.33
2023-05-09T04:31:28.082Z,16.65
2023-05-09T04:35:30.843Z,15.18
2023-05-09T04:39:32.694Z,15.15
2023-05-09T04:43:41.577Z,16.55
2023-05-09T04:47:43.511Z,14.93
2023-05-09T04:51:45.414Z,16.77
2023-05-09T04:55:47.086Z,15.85
2023-05-09T04:59:50.276Z,15.15
2023-05-09T05:03:53.132Z,14.88
2023-05-09T05:07:54.966Z,14.32
2023-05-09T05:12:02.909Z,15.73
2023-05-09T05:16:07.143Z,14.27
2023-05-09T05:20:10.762Z,14.18
2023-05-09T05:24:16.922Z,13.45
2023-05-09T05:28:18.832Z,14.90
2023-05-09T05:32:20.751Z,14.23
2023-05-09T05:36:22.817Z,14.43
2023-05-09T05:40:24.518Z,13.98
2023-05-09T05:44:27.917Z,13.82
2023-05-09T05:48:29.696Z,14.23
2023-05-09T05:52:33.002Z,13.95
2023-05-09T05:56:36.439Z,14.57
2023-05-09T06:00:42.175Z,13.20
2023-05-09T06:04:44.080Z,14.48
2023-05-09T06:08:46.213Z,14.23
2023-05-09T06:12:49.814Z,14.27
2023-05-09T06:16:53.313Z,14.30
2023-05-09T06:24:56.872Z,13.18
2023-05-09T06:28:58.606Z,13.45
2023-05-09T06:33:00.587Z,13.88
2023-05-09T06:37:02.482Z,14.77
2023-05-09T06:41:04.353Z,13.43
2023-05-09T06:45:06.838Z,15.35
2023-05-09T06:49:08.655Z,16.38
2023-05-09T06:53:10.326Z,15.15
2023-05-09T06:57:12.014Z,14.75
2023-05-09T07:01:15.539Z,15.25
2023-05-09T07:05:19.144Z,16.70
2023-05-09T07:09:21.050Z,15.38
2023-05-09T07:13:22.975Z,14.87
2023-05-09T07:17:25.432Z,16.83
2023-05-09T07:21:27.266Z,14.70
2023-05-09T07:25:28.979Z,13.63
2023-05-09T07:29:30.834Z,14.52
2023-05-09T07:33:33.855Z,14.43
2023-05-09T07:37:35.569Z,15.02
2023-05-09T07:41:37.315Z,14.27
2023-05-09T07:45:40.129Z,14.30
2023-05-09T07:49:43.633Z,14.68
2023-05-09T07:53:45.519Z,14.05
2023-05-09T07:57:47.856Z,14.40
2023-05-09T08:01:49.670Z,12.73
2023-05-09T08:06:00.207Z,14.37
2023-05-09T08:10:02.050Z,14.68
2023-05-09T08:14:03.781Z,14.75
2023-05-09T08:18:06.544Z,14.70
2023-05-09T08:22:08.391Z,14.77
2023-05-09T08:26:10.086Z,15.83
2023-05-09T08:30:12.467Z,15.52
2023-05-09T08:34:14.410Z,14.80
2023-05-09T08:38:16.060Z,14.80
2023-05-09T08:42:20.816Z,16.35
2023-05-09T08:46:34.046Z,14.82
2023-05-09T08:50:36.145Z,14.93
2023-05-09T08:54:38.462Z,14.75
2023-05-09T08:58:40.466Z,13.75
2023-05-09T09:02:45.041Z,14.48
2023-05-09T09:06:47.374Z,14.00
2023-05-09T09:10:49.269Z,14.88
2023-05-09T09:14:54.082Z,14.53
2023-05-09T09:18:59.226Z,13.65
2023-05-09T09:23:04.923Z,12.73
2023-05-09T09:27:06.878Z,13.07
2023-05-09T09:31:28.661Z,12.80
2023-05-09T09:35:38.978Z,12.55
2023-05-09T09:39:54.069Z,12.55
2023-05-09T09:43:58.804Z,14.25
2023-05-09T09:48:07.113Z,15.40
2023-05-09T09:52:08.825Z,13.98
2023-05-09T09:56:11.312Z,14.23
2023-05-09T10:04:17.037Z,14.07
2023-05-09T10:08:26.965Z,13.80
2023-05-09T10:12:35.482Z,13.63
2023-05-09T10:16:43.536Z,12.65
2023-05-09T10:20:53.416Z,9.68
2023-05-09T10:25:03.024Z,10.20
2023-05-09T10:29:10.648Z,10.35
2023-05-09T10:33:16.560Z,10.27
2023-05-09T10:37:18.602Z,9.88
2023-05-09T10:41:22.208Z,9.75
2023-05-09T10:45:24.282Z,9.55
2023-05-09T10:49:26.464Z,9.90
2023-05-09T10:53:45.276Z,8.20
2023-05-09T10:57:54.158Z,7.72
2023-05-09T11:02:01.121Z,7.70
2023-05-09T11:06:02.993Z,11.10
2023-05-09T11:10:09.345Z,8.93
2023-05-09T11:14:29.270Z,7.93
2023-05-09T11:18:33.749Z,7.93
2023-05-09T11:22:40.117Z,7.55
2023-05-09T11:26:48.221Z,6.90
2023-05-09T11:30:53.549Z,6.93
2023-05-09T11:35:07.638Z,6.50
2023-05-09T11:39:10.874Z,5.78
2023-05-09T11:43:13.137Z,6.03
2023-05-09T11:47:16.604Z,6.30
2023-05-09T11:51:19.503Z,6.20
2023-05-09T11:55:24.135Z,5.72
2023-05-09T11:59:28.385Z,5.35
2023-05-09T12:03:30.369Z,5.70
2023-05-09T12:07:32.474Z,5.75
2023-05-09T12:11:35.143Z,5.35
2023-05-09T12:15:38.307Z,4.95
2023-05-09T12:19:40.137Z,4.53
2023-05-09T12:23:41.871Z,5.00
2023-05-09T12:27:45.556Z,4.68
2023-05-09T12:31:48.019Z,4.20
2023-05-09T12:36:08.669Z,4.90
2023-05-09T12:40:15.960Z,3.30
2023-05-09T12:44:22.667Z,4.05
2023-05-09T12:48:25.541Z,4.05
2023-05-09T12:52:34.510Z,4.28
2023-05-09T12:56:36.315Z,4.15
2023-05-09T13:00:45.102Z,3.95
2023-05-09T13:04:47.461Z,3.58
2023-05-09T13:12:59.402Z,3.42
2023-05-09T13:17:01.512Z,3.55
2023-05-09T13:21:03.662Z,3.88
2023-05-09T13:25:06.182Z,4.00
2023-05-09T13:29:08.517Z,3.40
2023-05-09T13:33:24.627Z,3.67
2023-05-09T13:37:31.218Z,4.03
2023-05-09T13:41:38.125Z,3.72
2023-05-09T13:45:40.091Z,4.13
2023-05-09T13:49:41.850Z,4.32
2023-05-09T13:53:43.515Z,5.18
2023-05-09T13:57:46.807Z,4.10
2023-05-09T14:01:48.578Z,4.43
2023-05-09T14:05:54.235Z,4.72
2023-05-09T14:10:10.562Z,4.25
2023-05-09T14:14:13.195Z,5.32
2023-05-09T14:18:20.087Z,5.40
2023-05-09T14:22:23.078Z,4.68
2023-05-09T14:26:26.749Z,4.93
2023-05-09T14:30:30.862Z,5.00
2023-05-09T14:34:34.646Z,6.47
2023-05-09T14:38:37.014Z,6.40
2023-05-09T14:42:38.751Z,6.35
2023-05-09T14:46:40.397Z,6.07
2023-05-09T14:50:42.248Z,7.20
2023-05-09T14:54:46.284Z,6.80
2023-05-09T14:58:47.948Z,7.00
2023-05-09T15:02:50.599Z,7.00
2023-05-09T15:06:52.673Z,7.22
2023-05-09T15:10:54.552Z,9.07
2023-05-09T15:15:11.728Z,7.97
2023-05-09T15:19:13.407Z,8.35
2023-05-09T15:23:15.200Z,13.00
2023-05-09T15:27:17.086Z,12.63
2023-05-09T15:31:21.831Z,9.37
2023-05-09T15:35:23.719Z,9.48
2023-05-09T15:39:26.119Z,7.50
2023-05-09T15:43:27.840Z,7.18
2023-05-09T15:47:29.721Z,7.93
2023-05-09T15:51:32.192Z,7.60
2023-05-09T15:55:35.612Z,7.40
2023-05-09T15:59:37.524Z,7.60
2023-05-09T16:03:39.352Z,7.13
2023-05-09T16:07:46.174Z,7.57
2023-05-09T16:11:48.080Z,6.97
2023-05-09T16:15:51.221Z,7.75
2023-05-09T16:19:53.122Z,8.55
2023-05-09T16:23:58.009Z,8.37
2023-05-09T16:27:59.820Z,9.07
2023-05-09T16:32:01.668Z,9.13
2023-05-09T16:36:03.701Z,10.87
2023-05-09T16:40:06.238Z,10.63
2023-05-09T16:44:07.921Z,9.65
2023-05-09T16:48:09.957Z,10.47
2023-05-09T16:52:13.514Z,11.80
2023-05-09T16:56:15.203Z,10.52
2023-05-09T17:00:18.226Z,10.75
2023-05-09T17:04:20.058Z,10.13
2023-05-09T17:08:23.637Z,9.38
2023-05-09T17:12:27.649Z,11.50
2023-05-09T17:16:29.706Z,10.57
2023-05-09T17:20:31.921Z,11.77
2023-05-09T17:24:35.771Z,8.27
2023-05-09T17:28:37.572Z,7.57
2023-05-09T17:32:39.399Z,7.50
2023-05-09T17:36:41.249Z,6.40
2023-05-09T17:40:44.527Z,7.60
2023-05-09T17:44:47.400Z,6.55
2023-05-09T17:48:54.320Z,8.02
2023-05-09T17:52:57.010Z,12.10
2023-05-09T17:57:18.950Z,9.77
2023-05-09T18:01:21.118Z,11.52
2023-05-09T18:05:24.182Z,11.02
2023-05-09T18:09:28.239Z,10.65
2023-05-09T18:13:30.294Z,10.32
2023-05-09T18:17:32.405Z,9.75
2023-05-09T18:21:34.449Z,9.65
2023-05-09T18:26:05.926Z,10.25
2023-05-09T18:30:10.941Z,10.85
2023-05-09T18:34:13.061Z,10.70
2023-05-09T18:38:14.728Z,10.63
2023-05-09T18:42:16.643Z,9.68
2023-05-09T18:46:21.281Z,10.97
2023-05-09T18:50:23.274Z,11.60
2023-05-09T18:54:25.160Z,13.63
2023-05-09T18:58:26.780Z,12.20
2023-05-09T19:02:30.337Z,11.95
2023-05-09T19:06:32.558Z,10.27
2023-05-09T19:10:35.377Z,6.68
2023-05-09T19:18:39.828Z,3.70
2023-05-09T19:22:48.303Z,3.15
2023-05-09T19:26:50.088Z,3.90
2023-05-09T19:30:52.449Z,3.45
2023-05-09T19:34:54.263Z,4.38
2023-05-09T19:38:56.146Z,3.75
2023-05-09T19:42:57.992Z,3.92
2023-05-09T19:47:01.094Z,4.00
2023-05-09T19:51:02.989Z,4.35
2023-05-09T19:55:06.051Z,4.83
2023-05-09T19:59:07.811Z,4.55
2023-05-09T20:03:12.651Z,5.15
2023-05-09T20:07:14.892Z,4.43
2023-05-09T20:11:16.738Z,5.03
2023-05-09T20:15:18.767Z,4.90
2023-05-09T20:19:23.431Z,5.00
2023-05-09T20:23:25.077Z,6.45
2023-05-09T20:27:27.037Z,5.88
2023-05-09T20:31:29.375Z,6.60
2023-05-09T20:35:31.195Z,6.57
2023-05-09T20:39:32.985Z,6.20
2023-05-09T20:43:34.704Z,7.10
2023-05-09T20:47:36.528Z,6.28
2023-05-09T20:51:38.618Z,7.03
2023-05-09T20:55:40.296Z,6.50
2023-05-09T20:59:42.024Z,5.38
2023-05-09T21:03:43.976Z,6.18
2023-05-09T21:07:45.790Z,6.47
2023-05-09T21:11:47.469Z,5.78
2023-05-09T21:15:52.172Z,5.68
2023-05-09T21:19:53.960Z,5.78
2023-05-09T21:23:55.889Z,6.10
2023-05-09T21:27:57.601Z,6.13
2023-05-09T21:31:59.328Z,5.93
2023-05-09T21:36:02.368Z,6.10
2023-05-09T21:40:05.796Z,7.35
2023-05-09T21:44:08.009Z,5.68
2023-05-09T21:48:09.859Z,6.20
2023-05-09T21:52:11.796Z,5.67
2023-05-09T21:56:13.460Z,5.20
2023-05-09T22:00:17.390Z,5.15
2023-05-09T22:08:21.007Z,4.80
2023-05-09T22:12:23.177Z,5.03
2023-05-09T22:16:26.575Z,4.72
2023-05-09T22:20:28.310Z,4.90
2023-05-09T22:24:30.069Z,4.80
2023-05-09T22:28:32.098Z,4.50
2023-05-09T22:32:33.822Z,4.63
2023-05-09T22:36:35.511Z,5.03
2023-05-09T22:40:37.202Z,5.13
2023-05-09T22:44:45.966Z,4.30
2023-05-09T22:48:47.759Z,4.00
2023-05-09T22:52:52.185Z,3.88
2023-05-09T22:56:54.297Z,4.03
2023-05-09T23:01:17.970Z,2.67
2023-05-09T23:05:19.963Z,1.67
2023-05-09T23:14:07.590Z,1.27
2023-05-09T23:18:09.686Z,1.17
2023-05-09T23:22:19.670Z,0.93
2023-05-09T23:26:23.946Z,0.98
2023-05-09T23:30:31.909Z,0.97
2023-05-09T23:34:36.334Z,0.80
2023-05-09T23:38:38.200Z,0.60
2023-05-09T23:42:39.872Z,0.50
2023-05-09T23:46:41.541Z,0.68
2023-05-09T23:50:43.439Z,0.57
2023-05-09T23:54:45.112Z,0.65
2023-05-09T23:58:49.866Z,0.80
